createdAt,value
2019-02-28T00:01:55.601Z,10.30
2019-02-28T00:04:25.038Z,10.27
2019-02-28T00:06:54.467Z,10.47
2019-02-28T00:09:25.710Z,10.40
2019-02-28T00:11:55.047Z,11.10
2019-02-28T00:14:27.705Z,10.80
2019-02-28T00:16:55.601Z,10.33
2019-02-28T00:19:25.008Z,11.13
2019-02-28T00:21:54.439Z,11.67
2019-02-28T00:24:23.846Z,11.37
2019-02-28T00:26:59.944Z,11.43
2019-02-28T00:29:33.321Z,11.37
2019-02-28T00:32:00.579Z,10.43
2019-02-28T00:34:29.998Z,11.60
2019-02-28T00:36:59.407Z,11.60
2019-02-28T00:39:34.768Z,12.00
2019-02-28T00:42:02.640Z,11.50
2019-02-28T00:44:32.087Z,11.13
2019-02-28T00:47:01.486Z,11.80
2019-02-28T00:49:30.913Z,10.77
2019-02-28T00:52:01.545Z,11.20
2019-02-28T00:54:31.472Z,11.53
2019-02-28T00:57:00.878Z,12.33
2019-02-28T00:59:31.723Z,11.77
2019-02-28T01:02:01.512Z,12.50
2019-02-28T01:04:30.961Z,12.47
2019-02-28T01:07:00.415Z,11.63
2019-02-28T01:09:30.174Z,12.00
2019-02-28T01:12:00.451Z,11.60
2019-02-28T01:14:32.441Z,11.43
2019-02-28T01:17:05.405Z,12.07
2019-02-28T01:19:34.925Z,11.90
2019-02-28T01:22:27.983Z,11.60
2019-02-28T01:24:57.424Z,12.27
2019-02-28T01:27:26.843Z,12.50
2019-02-28T01:29:56.281Z,12.63
2019-02-28T01:32:25.691Z,12.73
2019-02-28T01:34:55.119Z,13.00
2019-02-28T01:37:24.539Z,12.80
2019-02-28T01:39:53.963Z,12.70
2019-02-28T01:42:23.406Z,13.23
2019-02-28T01:44:52.822Z,13.30
2019-02-28T01:47:22.220Z,13.57
2019-02-28T01:49:58.741Z,13.03
2019-02-28T01:52:28.248Z,13.50
2019-02-28T01:54:58.581Z,13.60
2019-02-28T01:57:28.639Z,13.30
2019-02-28T01:59:58.091Z,13.70
2019-02-28T02:02:27.539Z,13.03
2019-02-28T02:04:56.978Z,13.63
2019-02-28T02:07:26.499Z,13.17
2019-02-28T02:09:55.958Z,12.83
2019-02-28T02:12:25.358Z,13.57
2019-02-28T02:14:54.827Z,14.10
2019-02-28T02:17:24.272Z,14.53
2019-02-28T02:19:53.775Z,15.07
2019-02-28T02:22:23.182Z,14.67
2019-02-28T02:24:52.660Z,14.07
2019-02-28T02:27:22.094Z,15.03
2019-02-28T02:29:51.511Z,15.03
2019-02-28T02:32:20.910Z,14.00
2019-02-28T02:34:50.322Z,14.27
2019-02-28T02:37:19.752Z,14.73
2019-02-28T02:39:50.246Z,14.07
2019-02-28T02:42:20.288Z,14.63
2019-02-28T02:44:49.719Z,14.13
2019-02-28T02:47:19.141Z,15.07
2019-02-28T02:49:55.971Z,14.07
2019-02-28T02:52:30.006Z,14.57
2019-02-28T02:54:53.998Z,14.20
2019-02-28T02:57:31.126Z,14.87
2019-02-28T03:00:00.532Z,14.93
2019-02-28T03:02:33.197Z,14.10
2019-02-28T03:05:01.062Z,14.43
2019-02-28T03:07:30.489Z,14.73
2019-02-28T03:09:59.960Z,14.60
2019-02-28T03:12:31.023Z,14.57
2019-02-28T03:15:00.544Z,15.17
2019-02-28T03:17:30.109Z,14.60
2019-02-28T03:19:59.569Z,16.07
2019-02-28T03:22:30.394Z,17.20
2019-02-28T03:24:59.915Z,15.70
2019-02-28T03:27:29.316Z,16.03
2019-02-28T03:29:58.820Z,16.77
2019-02-28T03:32:39.807Z,15.60
2019-02-28T03:34:59.580Z,17.57
2019-02-28T03:37:32.773Z,15.87
2019-02-28T03:40:04.259Z,17.63
2019-02-28T03:42:31.373Z,16.23
2019-02-28T03:45:00.874Z,17.57
2019-02-28T03:47:30.280Z,17.63
2019-02-28T03:49:59.685Z,18.07
2019-02-28T03:52:29.088Z,17.10
2019-02-28T03:55:03.377Z,17.33
2019-02-28T03:57:29.710Z,17.47
2019-02-28T03:59:59.193Z,17.67
2019-02-28T04:02:28.608Z,17.63
2019-02-28T04:04:58.109Z,18.40
2019-02-28T04:07:28.479Z,18.47
2019-02-28T04:09:57.927Z,19.20
2019-02-28T04:12:28.956Z,18.77
2019-02-28T04:14:58.437Z,17.60
2019-02-28T04:17:30.625Z,17.97
2019-02-28T04:20:00.477Z,18.93
2019-02-28T04:22:30.268Z,18.47
2019-02-28T04:24:59.780Z,18.20
2019-02-28T04:27:29.210Z,18.87
2019-02-28T04:30:06.365Z,19.07
2019-02-28T04:32:29.731Z,18.43
2019-02-28T04:34:59.166Z,19.90
2019-02-28T04:37:28.657Z,20.13
2019-02-28T04:39:58.045Z,20.70
2019-02-28T04:42:27.465Z,19.80
2019-02-28T04:44:56.908Z,19.57
2019-02-28T04:47:26.350Z,20.10
2019-02-28T04:49:57.039Z,20.87
2019-02-28T04:52:27.068Z,20.80
2019-02-28T04:54:59.432Z,20.20
2019-02-28T04:57:27.585Z,19.60
2019-02-28T04:59:57.049Z,20.83
2019-02-28T05:02:27.585Z,20.23
2019-02-28T05:08:04.792Z,20.67
2019-02-28T05:10:45.598Z,21.03
2019-02-28T05:13:15.067Z,21.57
2019-02-28T05:15:44.457Z,20.50
2019-02-28T05:18:13.860Z,20.77
2019-02-28T05:20:45.936Z,21.60
2019-02-28T05:23:14.548Z,24.93
2019-02-28T05:25:44.012Z,24.93
2019-02-28T05:28:13.421Z,25.40
2019-02-28T05:30:42.849Z,26.10
2019-02-28T05:33:12.270Z,25.90
2019-02-28T05:35:41.787Z,28.83
2019-02-28T05:38:11.244Z,25.53
2019-02-28T05:40:41.502Z,25.87
2019-02-28T05:43:11.066Z,23.47
2019-02-28T05:45:41.492Z,23.83
2019-02-28T05:48:10.852Z,25.33
2019-02-28T05:50:40.553Z,25.00
2019-02-28T05:53:10.069Z,25.80
2019-02-28T05:55:39.575Z,25.80
2019-02-28T05:58:08.994Z,26.97
2019-02-28T06:00:38.473Z,27.07
2019-02-28T06:03:07.931Z,26.73
2019-02-28T06:05:38.900Z,28.00
2019-02-28T06:08:08.540Z,26.57
2019-02-28T06:10:37.963Z,26.63
2019-02-28T06:13:07.404Z,26.63
2019-02-28T06:15:37.132Z,28.43
2019-02-28T06:18:07.530Z,28.23
2019-02-28T06:20:51.565Z,27.13
2019-02-28T06:23:21.340Z,27.33
2019-02-28T06:25:50.796Z,27.03
2019-02-28T06:28:20.236Z,25.37
2019-02-28T06:30:49.722Z,27.47
2019-02-28T06:33:21.112Z,27.33
2019-02-28T06:35:53.571Z,28.93
2019-02-28T06:38:21.917Z,27.20
2019-02-28T06:40:51.355Z,28.03
2019-02-28T06:43:20.704Z,28.20
2019-02-28T06:45:50.128Z,27.20
2019-02-28T06:48:20.853Z,28.13
2019-02-28T06:50:52.452Z,30.93
2019-02-28T06:53:21.919Z,31.07
2019-02-28T06:55:51.335Z,29.90
2019-02-28T06:58:20.734Z,29.80
2019-02-28T07:00:50.577Z,31.90
2019-02-28T07:03:21.405Z,29.53
2019-02-28T07:05:50.810Z,31.40
2019-02-28T07:08:24.271Z,30.10
2019-02-28T07:10:51.367Z,32.17
2019-02-28T07:13:20.792Z,34.13
2019-02-28T07:15:50.213Z,31.50
2019-02-28T07:18:20.545Z,33.40
2019-02-28T07:20:50.614Z,34.67
2019-02-28T07:23:22.159Z,34.80
2019-02-28T07:25:52.426Z,33.57
2019-02-28T07:28:21.945Z,35.87
2019-02-28T07:30:51.423Z,36.33
2019-02-28T07:33:20.869Z,37.87
2019-02-28T07:35:50.301Z,36.63
2019-02-28T07:38:19.729Z,35.40
2019-02-28T07:40:49.691Z,35.67
2019-02-28T07:43:19.795Z,32.70
2019-02-28T07:45:49.303Z,34.67
2019-02-28T07:48:18.744Z,35.60
2019-02-28T07:50:48.170Z,35.97
2019-02-28T07:53:17.587Z,33.73
2019-02-28T07:55:47.014Z,32.50
2019-02-28T07:58:16.534Z,33.00
2019-02-28T08:00:45.975Z,32.73
2019-02-28T08:03:15.385Z,32.67
2019-02-28T08:05:45.070Z,30.70
2019-02-28T08:08:14.509Z,29.93
2019-02-28T08:10:44.077Z,30.97
2019-02-28T08:13:13.515Z,30.30
2019-02-28T08:15:42.922Z,30.10
2019-02-28T08:18:12.359Z,29.73
2019-02-28T08:20:41.770Z,30.10
2019-02-28T08:23:12.765Z,30.80
2019-02-28T08:25:42.773Z,30.13
2019-02-28T08:28:13.017Z,29.57
2019-02-28T08:30:42.513Z,29.73
2019-02-28T08:33:11.965Z,29.20
2019-02-28T08:35:41.354Z,28.43
2019-02-28T08:38:10.790Z,29.17
2019-02-28T08:40:40.300Z,28.53
2019-02-28T08:43:10.482Z,29.10
2019-02-28T08:45:40.915Z,28.37
2019-02-28T08:48:12.574Z,30.10
2019-02-28T08:50:41.642Z,30.33
2019-02-28T08:53:12.390Z,30.10
2019-02-28T08:55:44.308Z,28.40
2019-02-28T08:58:13.275Z,30.43
2019-02-28T09:00:42.774Z,31.10
2019-02-28T09:03:12.211Z,30.83
2019-02-28T09:05:41.641Z,33.07
2019-02-28T09:08:11.288Z,31.77
2019-02-28T09:10:43.644Z,31.17
2019-02-28T09:13:12.073Z,32.03
2019-02-28T09:15:44.453Z,31.33
2019-02-28T09:18:13.965Z,32.57
2019-02-28T09:20:45.087Z,33.07
2019-02-28T09:23:14.665Z,33.27
2019-02-28T09:25:44.078Z,33.03
2019-02-28T09:28:13.855Z,34.60
2019-02-28T09:30:45.333Z,31.87
2019-02-28T09:33:14.744Z,34.13
2019-02-28T09:35:46.245Z,33.70
2019-02-28T09:38:15.299Z,33.07
2019-02-28T09:40:44.789Z,33.37
2019-02-28T09:43:14.247Z,33.47
2019-02-28T09:45:43.796Z,33.13
2019-02-28T09:48:13.215Z,33.73
2019-02-28T09:50:42.741Z,31.70
2019-02-28T09:53:15.548Z,33.30
2019-02-28T09:55:43.266Z,32.13
2019-02-28T09:58:12.659Z,31.87
2019-02-28T10:00:43.308Z,33.53
2019-02-28T10:03:15.422Z,32.70
2019-02-28T10:05:44.833Z,33.43
2019-02-28T10:08:15.496Z,31.90
2019-02-28T10:10:45.106Z,32.07
2019-02-28T10:13:18.351Z,32.27
2019-02-28T10:15:45.860Z,32.97
2019-02-28T10:18:15.272Z,33.17
2019-02-28T10:20:46.270Z,32.73
2019-02-28T10:23:18.382Z,33.80
2019-02-28T10:25:46.960Z,33.10
2019-02-28T10:28:16.470Z,32.30
2019-02-28T10:30:47.170Z,32.37
2019-02-28T10:33:18.075Z,32.13
2019-02-28T10:35:47.805Z,31.80
2019-02-28T10:38:17.279Z,33.03
2019-02-28T10:40:49.338Z,32.50
2019-02-28T10:43:17.951Z,31.33
2019-02-28T10:45:47.405Z,30.40
2019-02-28T10:48:16.926Z,29.90
2019-02-28T10:50:46.321Z,30.23
2019-02-28T10:53:15.778Z,31.43
2019-02-28T10:55:45.187Z,30.57
2019-02-28T10:58:15.547Z,30.40
2019-02-28T11:00:46.450Z,31.50
2019-02-28T11:03:17.652Z,29.83
2019-02-28T11:05:47.164Z,32.13
2019-02-28T11:08:19.242Z,30.63
2019-02-28T11:10:49.046Z,33.60
2019-02-28T11:13:20.597Z,32.80
2019-02-28T11:15:50.190Z,33.57
2019-02-28T11:18:19.732Z,33.47
2019-02-28T11:20:49.207Z,34.90
2019-02-28T11:23:18.769Z,34.63
2019-02-28T11:25:48.324Z,35.23
2019-02-28T11:28:17.726Z,33.93
2019-02-28T11:30:47.723Z,37.70
2019-02-28T11:33:18.425Z,37.00
2019-02-28T11:35:48.092Z,36.97
2019-02-28T11:38:21.434Z,38.43
2019-02-28T11:40:57.052Z,37.80
2019-02-28T11:43:20.151Z,38.97
2019-02-28T11:45:49.672Z,40.00
2019-02-28T11:48:21.931Z,40.87
2019-02-28T11:50:51.372Z,40.13
2019-02-28T11:53:20.842Z,41.20
2019-02-28T11:55:53.367Z,41.27
2019-02-28T11:58:24.255Z,41.97
2019-02-28T12:00:53.766Z,40.53
2019-02-28T12:03:23.456Z,41.87
2019-02-28T12:05:52.972Z,43.33
2019-02-28T12:08:23.757Z,42.73
2019-02-28T12:10:53.237Z,44.27
2019-02-28T12:13:22.720Z,43.33
2019-02-28T12:15:52.145Z,44.87
2019-02-28T12:18:21.556Z,44.23
2019-02-28T12:20:51.348Z,45.93
2019-02-28T12:23:23.497Z,46.63
2019-02-28T12:25:52.021Z,45.17
2019-02-28T12:28:21.421Z,44.87
2019-02-28T12:30:50.950Z,46.30
2019-02-28T12:33:23.138Z,44.33
2019-02-28T12:35:51.462Z,44.07
2019-02-28T12:38:20.952Z,42.33
2019-02-28T12:40:50.377Z,42.50
2019-02-28T12:43:19.817Z,42.10
2019-02-28T12:45:49.234Z,40.30
2019-02-28T12:48:18.739Z,37.33
2019-02-28T12:50:48.240Z,34.10
2019-02-28T12:53:17.688Z,33.90
2019-02-28T12:55:47.120Z,35.77
2019-02-28T12:58:16.652Z,32.67
2019-02-28T13:00:47.117Z,34.27
2019-02-28T13:03:20.300Z,34.17
2019-02-28T13:05:49.369Z,35.93
2019-02-28T13:08:18.780Z,37.63
2019-02-28T13:10:49.551Z,41.33
2019-02-28T13:13:21.670Z,42.90
2019-02-28T13:15:50.234Z,44.77
2019-02-28T13:18:19.771Z,46.43
2019-02-28T13:20:49.310Z,46.37
2019-02-28T13:23:18.750Z,47.43
2019-02-28T13:25:48.241Z,49.67
2019-02-28T13:28:21.736Z,50.57
2019-02-28T13:30:51.577Z,49.10
2019-02-28T13:33:20.233Z,50.03
2019-02-28T13:35:49.681Z,49.70
2019-02-28T13:38:19.816Z,50.03
2019-02-28T13:40:49.570Z,50.63
2019-02-28T13:43:21.262Z,48.67
2019-02-28T13:45:50.943Z,49.97
2019-02-28T13:48:26.195Z,49.53
2019-02-28T13:50:52.510Z,46.97
2019-02-28T13:53:23.421Z,48.60
2019-02-28T13:55:57.786Z,46.03
2019-02-28T13:58:25.856Z,48.70
2019-02-28T14:00:55.280Z,47.67
2019-02-28T14:03:24.724Z,47.70
2019-02-28T14:05:54.246Z,43.83
2019-02-28T14:08:23.766Z,40.90
2019-02-28T14:10:53.370Z,38.30
2019-02-28T14:13:22.822Z,39.47
2019-02-28T14:15:53.078Z,37.00
2019-02-28T14:18:22.696Z,36.33
2019-02-28T14:20:52.124Z,34.43
2019-02-28T14:23:21.754Z,34.97
2019-02-28T14:25:51.468Z,36.73
2019-02-28T14:28:21.136Z,36.73
2019-02-28T14:30:50.651Z,36.87
2019-02-28T14:33:20.789Z,35.27
2019-02-28T14:35:50.537Z,35.37
2019-02-28T14:38:20.015Z,32.33
2019-02-28T14:40:52.824Z,33.93
2019-02-28T14:43:23.809Z,32.87
2019-02-28T14:45:53.352Z,33.27
2019-02-28T14:48:22.953Z,33.27
2019-02-28T14:50:53.936Z,32.03
2019-02-28T14:53:23.732Z,34.00
2019-02-28T14:55:53.650Z,33.90
2019-02-28T14:58:23.235Z,33.17
2019-02-28T15:00:52.856Z,34.20
2019-02-28T15:03:22.771Z,31.63
2019-02-28T15:05:55.565Z,30.50
2019-02-28T15:08:23.701Z,29.73
2019-02-28T15:10:53.768Z,30.00
2019-02-28T15:13:25.644Z,28.00
2019-02-28T15:15:56.954Z,28.13
2019-02-28T15:18:26.674Z,26.50
2019-02-28T15:20:57.175Z,27.50
2019-02-28T15:23:26.621Z,27.63
2019-02-28T15:25:58.733Z,25.90
2019-02-28T15:28:28.172Z,24.43
2019-02-28T15:30:57.666Z,24.60
2019-02-28T15:33:30.540Z,23.63
2019-02-28T15:35:59.002Z,22.33
2019-02-28T15:38:28.481Z,21.23
2019-02-28T15:40:58.852Z,23.63
2019-02-28T15:43:29.768Z,20.60
2019-02-28T15:45:59.245Z,20.40
2019-02-28T15:48:31.420Z,20.77
2019-02-28T15:51:00.003Z,19.50
2019-02-28T15:53:29.430Z,19.37
2019-02-28T15:55:58.983Z,18.10
2019-02-28T15:58:28.377Z,16.47
2019-02-28T16:00:57.874Z,14.57
2019-02-28T16:03:27.265Z,13.90
2019-02-28T16:05:56.718Z,14.10
2019-02-28T16:08:28.314Z,13.20
2019-02-28T16:10:58.570Z,14.83
2019-02-28T16:13:27.996Z,13.50
2019-02-28T16:15:57.458Z,14.43
2019-02-28T16:18:26.904Z,13.30
2019-02-28T16:20:56.325Z,12.70
2019-02-28T16:23:27.537Z,12.93
2019-02-28T16:25:57.022Z,13.53
2019-02-28T16:28:26.468Z,12.57
2019-02-28T16:30:55.876Z,13.03
2019-02-28T16:33:25.523Z,11.50
2019-02-28T16:35:55.005Z,11.60
2019-02-28T16:38:24.441Z,12.60
2019-02-28T16:40:53.851Z,11.80
2019-02-28T16:43:23.248Z,11.87
2019-02-28T16:45:52.772Z,12.50
2019-02-28T16:48:22.415Z,12.10
2019-02-28T16:50:53.453Z,12.30
2019-02-28T16:53:23.801Z,11.90
2019-02-28T16:55:53.300Z,11.00
2019-02-28T16:58:22.901Z,10.53
2019-02-28T17:00:52.531Z,10.63
2019-02-28T17:03:22.067Z,9.87
2019-02-28T17:05:51.499Z,10.30
2019-02-28T17:08:21.015Z,10.03
2019-02-28T17:10:50.433Z,9.53
2019-02-28T17:13:21.703Z,9.50
2019-02-28T17:15:55.851Z,8.70
2019-02-28T17:18:25.396Z,8.50
2019-02-28T17:20:55.019Z,8.43
2019-02-28T17:23:24.463Z,7.90
2019-02-28T17:25:56.545Z,8.03
2019-02-28T17:28:26.557Z,8.07
2019-02-28T17:30:57.637Z,8.43
2019-02-28T17:33:27.075Z,8.20
2019-02-28T17:35:56.575Z,8.17
2019-02-28T17:38:25.994Z,7.67
2019-02-28T17:40:55.400Z,7.87
2019-02-28T17:43:25.258Z,8.27
2019-02-28T17:45:54.778Z,8.37
2019-02-28T17:48:27.346Z,8.67
2019-02-28T17:50:59.993Z,8.70
2019-02-28T17:53:32.573Z,9.40
2019-02-28T17:56:05.171Z,9.00
2019-02-28T17:58:37.748Z,8.90
2019-02-28T18:01:10.396Z,9.20
2019-02-28T18:03:44.961Z,9.03
2019-02-28T18:06:17.283Z,8.93
2019-02-28T18:08:49.862Z,9.37
2019-02-28T18:11:22.430Z,9.70
2019-02-28T18:13:56.051Z,8.97
2019-02-28T18:16:28.671Z,9.43
2019-02-28T18:19:01.239Z,8.97
2019-02-28T18:21:33.783Z,10.07
2019-02-28T18:24:06.401Z,9.83
2019-02-28T18:26:39.513Z,10.00
2019-02-28T18:29:12.130Z,9.20
2019-02-28T18:31:42.012Z,9.67
2019-02-28T18:34:11.545Z,10.10
2019-02-28T18:36:43.440Z,9.73
2019-02-28T18:39:13.782Z,10.13
2019-02-28T18:41:43.267Z,9.53
2019-02-28T18:44:12.747Z,9.37
2019-02-28T18:46:42.148Z,9.57
2019-02-28T18:49:11.606Z,9.97
2019-02-28T18:51:41.046Z,10.43
2019-02-28T18:54:10.461Z,10.30
2019-02-28T18:56:39.905Z,9.87
2019-02-28T18:59:09.309Z,10.13
2019-02-28T19:01:38.726Z,9.50
2019-02-28T19:04:08.190Z,10.23
2019-02-28T19:06:37.627Z,9.67
2019-02-28T19:09:10.571Z,9.17
2019-02-28T19:11:39.998Z,9.10
2019-02-28T19:14:10.813Z,8.20
2019-02-28T19:16:40.256Z,9.00
2019-02-28T19:19:09.683Z,8.87
2019-02-28T19:21:39.194Z,9.33
2019-02-28T19:24:08.627Z,11.20
2019-02-28T19:26:38.079Z,12.70
2019-02-28T19:29:07.521Z,12.23
2019-02-28T19:31:37.026Z,13.73
2019-02-28T19:34:06.434Z,13.97
2019-02-28T19:36:35.883Z,14.30
2019-02-28T19:39:06.736Z,13.93
2019-02-28T19:41:36.629Z,13.07
2019-02-28T19:44:06.161Z,13.57
2019-02-28T19:46:35.581Z,15.03
2019-02-28T19:49:05.078Z,13.77
2019-02-28T19:51:34.549Z,16.50
2019-02-28T19:54:03.961Z,15.60
2019-02-28T19:56:33.419Z,16.33
2019-02-28T19:59:02.860Z,16.40
2019-02-28T20:01:32.296Z,18.17
2019-02-28T20:04:01.770Z,18.20
2019-02-28T20:06:31.182Z,18.97
2019-02-28T20:09:00.682Z,18.77
2019-02-28T20:11:30.117Z,18.17
2019-02-28T20:13:59.521Z,19.80
2019-02-28T20:16:30.427Z,16.57
2019-02-28T20:18:59.837Z,16.33
2019-02-28T20:21:29.289Z,15.60
2019-02-28T20:23:58.842Z,14.87
2019-02-28T20:26:28.259Z,15.43
2019-02-28T20:28:59.288Z,15.50
2019-02-28T20:31:28.740Z,16.13
2019-02-28T20:33:58.135Z,16.47
2019-02-28T20:36:27.610Z,16.30
2019-02-28T20:38:57.047Z,15.87
2019-02-28T20:41:26.471Z,15.80
2019-02-28T20:43:57.840Z,15.40
2019-02-28T20:46:27.262Z,15.73
2019-02-28T20:48:56.718Z,16.60
2019-02-28T20:51:26.143Z,17.33
2019-02-28T20:53:55.641Z,16.97
2019-02-28T20:56:25.091Z,16.47
2019-02-28T20:58:54.518Z,17.27
2019-02-28T21:01:23.954Z,19.10
2019-02-28T21:03:53.389Z,18.30
2019-02-28T21:06:24.094Z,18.60
2019-02-28T21:08:53.652Z,19.13
2019-02-28T21:11:23.110Z,20.00
2019-02-28T21:13:52.548Z,21.07
2019-02-28T21:16:22.007Z,22.03
2019-02-28T21:18:52.639Z,24.73
2019-02-28T21:21:24.713Z,0.00
2019-02-28T21:23:54.141Z,0.00
2019-02-28T21:26:42.921Z,0.00
2019-02-28T21:29:12.319Z,0.00
2019-02-28T21:31:41.777Z,0.00
2019-02-28T21:34:11.179Z,30.17
2019-02-28T21:36:40.632Z,32.90
2019-02-28T21:39:10.051Z,35.07
2019-02-28T21:41:39.502Z,39.23
2019-02-28T21:44:08.934Z,38.67
2019-02-28T21:46:38.349Z,37.77
2019-02-28T21:49:07.844Z,40.20
2019-02-28T21:51:56.643Z,40.10
2019-02-28T21:54:38.931Z,40.30
2019-02-28T21:57:08.379Z,42.30
2019-02-28T21:59:37.829Z,41.83
2019-02-28T22:02:07.235Z,39.67
2019-02-28T22:04:36.657Z,37.40
2019-02-28T22:07:06.104Z,40.03
2019-02-28T22:09:35.542Z,37.43
2019-02-28T22:12:04.981Z,37.87
2019-02-28T22:14:34.414Z,33.43
2019-02-28T22:17:03.835Z,33.13
2019-02-28T22:19:33.394Z,28.47
2019-02-28T22:22:02.835Z,29.50
2019-02-28T22:24:32.257Z,29.40
2019-02-28T22:27:01.660Z,27.27
2019-02-28T22:29:31.069Z,27.67
2019-02-28T22:32:02.100Z,26.23
2019-02-28T22:34:33.185Z,25.97
2019-02-28T22:37:02.603Z,26.33
2019-02-28T22:39:32.114Z,24.77
2019-02-28T22:42:01.558Z,23.70
2019-02-28T22:44:30.970Z,22.93
2019-02-28T22:47:00.376Z,22.53
2019-02-28T22:49:29.775Z,22.67
2019-02-28T22:51:59.183Z,21.00
2019-02-28T22:54:28.623Z,21.93
2019-02-28T22:56:58.091Z,20.63
2019-02-28T22:59:27.488Z,19.80
2019-02-28T23:01:57.016Z,19.80
2019-02-28T23:04:26.435Z,20.10
2019-02-28T23:06:55.870Z,19.67
2019-02-28T23:09:25.351Z,18.47
2019-02-28T23:11:54.811Z,18.00
2019-02-28T23:14:24.285Z,17.77
2019-02-28T23:16:53.720Z,19.27
2019-02-28T23:19:23.125Z,17.73
2019-02-28T23:21:52.845Z,18.80
2019-02-28T23:24:22.242Z,20.30
2019-02-28T23:26:54.836Z,21.43
2019-02-28T23:29:25.786Z,24.20
2019-02-28T23:31:58.337Z,23.43
2019-02-28T23:34:30.956Z,22.87
2019-02-28T23:37:00.383Z,24.57
2019-02-28T23:39:29.792Z,23.90
2019-02-28T23:41:59.229Z,24.90
2019-02-28T23:44:28.701Z,26.07
2019-02-28T23:46:58.127Z,27.30
2019-02-28T23:49:27.546Z,26.23
2019-02-28T23:51:56.964Z,25.90
2019-02-28T23:54:26.392Z,27.27
2019-02-28T23:56:55.865Z,26.30
2019-02-28T23:59:25.308Z,25.30
